createdAt,value
2019-05-20T00:00:00.823Z,50.79
2019-05-20T00:02:33.977Z,51.37
2019-05-20T00:05:05.294Z,51.63
2019-05-20T00:07:37.979Z,51.72
2019-05-20T00:10:10.781Z,52.11
2019-05-20T00:12:43.813Z,52.66
2019-05-20T00:15:17.109Z,51.57
2019-05-20T00:17:50.630Z,52.19
2019-05-20T00:20:23.357Z,52.55
2019-05-20T00:22:55.954Z,51.40
2019-05-20T00:25:28.808Z,51.50
2019-05-20T00:28:01.304Z,51.56
2019-05-20T00:30:33.953Z,51.62
2019-05-20T00:33:06.663Z,53.43
2019-05-20T00:35:39.213Z,53.29
2019-05-20T00:38:11.726Z,53.56
2019-05-20T00:40:44.683Z,53.77
2019-05-20T00:43:17.151Z,54.22
2019-05-20T00:45:50.541Z,54.76
2019-05-20T00:48:23.050Z,54.57
2019-05-20T00:50:55.986Z,54.04
2019-05-20T00:53:28.577Z,53.89
2019-05-20T00:56:01.597Z,54.34
2019-05-20T00:58:34.292Z,54.33
2019-05-20T01:01:07.132Z,52.86
2019-05-20T01:03:39.768Z,53.51
2019-05-20T01:06:12.369Z,52.66
2019-05-20T01:08:45.265Z,52.79
2019-05-20T01:11:19.039Z,53.54
2019-05-20T01:13:51.628Z,54.45
2019-05-20T01:16:24.484Z,54.21
2019-05-20T01:18:57.073Z,55.32
2019-05-20T01:21:29.596Z,54.65
2019-05-20T01:24:03.164Z,55.02
2019-05-20T01:26:35.541Z,54.48
2019-05-20T01:29:08.388Z,55.24
2019-05-20T01:31:40.518Z,54.94
2019-05-20T01:34:12.698Z,55.18
2019-05-20T01:36:45.979Z,55.27
2019-05-20T01:39:18.523Z,56.29
2019-05-20T01:41:51.045Z,55.67
2019-05-20T01:44:23.891Z,56.09
2019-05-20T01:46:56.533Z,57.04
2019-05-20T01:49:29.489Z,57.09
2019-05-20T01:52:02.173Z,56.53
2019-05-20T01:54:34.591Z,56.55
2019-05-20T01:57:07.504Z,56.74
2019-05-20T01:59:40.112Z,57.78
2019-05-20T02:02:13.672Z,57.56
2019-05-20T02:04:46.095Z,57.57
2019-05-20T02:07:18.996Z,57.27
2019-05-20T02:09:52.764Z,57.73
2019-05-20T02:12:25.276Z,57.86
2019-05-20T02:15:03.935Z,58.85
2019-05-20T02:17:36.953Z,59.55
2019-05-20T02:20:09.587Z,58.46
2019-05-20T02:22:42.610Z,58.21
2019-05-20T02:25:16.139Z,58.46
2019-05-20T02:27:48.766Z,58.60
2019-05-20T02:30:21.053Z,58.12
2019-05-20T02:32:54.096Z,58.25
2019-05-20T02:35:26.596Z,58.83
2019-05-20T02:37:59.015Z,58.82
2019-05-20T02:40:31.856Z,59.74
2019-05-20T02:43:04.588Z,60.26
2019-05-20T02:45:38.008Z,61.25
2019-05-20T02:48:10.410Z,61.27
2019-05-20T02:50:43.257Z,61.73
2019-05-20T02:53:15.743Z,62.33
2019-05-20T02:55:48.844Z,62.12
2019-05-20T02:58:21.555Z,62.17
2019-05-20T03:00:54.074Z,61.94
2019-05-20T03:03:26.412Z,61.93
2019-05-20T03:05:59.273Z,62.64
2019-05-20T03:08:31.648Z,63.35
2019-05-20T03:11:04.104Z,63.29
2019-05-20T03:13:36.945Z,63.53
2019-05-20T03:16:09.659Z,64.05
2019-05-20T03:18:41.964Z,64.53
2019-05-20T03:21:14.696Z,64.59
2019-05-20T03:23:47.380Z,65.24
2019-05-20T03:26:19.858Z,65.49
2019-05-20T03:28:53.144Z,64.93
2019-05-20T03:31:24.218Z,64.69
2019-05-20T03:33:57.110Z,64.97
2019-05-20T03:36:29.582Z,65.08
2019-05-20T03:39:02.523Z,65.14
2019-05-20T03:41:35.339Z,65.86
2019-05-20T03:44:08.415Z,66.00
2019-05-20T03:46:42.357Z,66.04
2019-05-20T03:49:15.008Z,66.39
2019-05-20T03:51:47.910Z,65.57
2019-05-20T03:54:20.399Z,65.40
2019-05-20T03:56:53.541Z,65.32
2019-05-20T03:59:24.824Z,64.74
2019-05-20T04:01:57.710Z,65.01
2019-05-20T04:04:30.110Z,64.52
2019-05-20T04:07:02.665Z,64.41
2019-05-20T04:09:35.604Z,64.19
2019-05-20T04:12:08.277Z,63.61
2019-05-20T04:14:40.835Z,63.29
2019-05-20T04:17:13.778Z,62.76
2019-05-20T04:19:46.508Z,62.73
2019-05-20T04:22:19.024Z,61.91
2019-05-20T04:24:52.222Z,61.66
2019-05-20T04:27:24.844Z,61.52
2019-05-20T04:29:57.976Z,61.84
2019-05-20T04:32:29.039Z,60.25
2019-05-20T04:35:20.420Z,60.24
2019-05-20T04:37:39.949Z,60.75
2019-05-20T04:40:13.371Z,60.76
2019-05-20T04:42:45.994Z,60.78
2019-05-20T04:45:18.646Z,60.64
2019-05-20T04:47:51.329Z,60.40
2019-05-20T04:50:24.891Z,59.95
2019-05-20T04:52:57.319Z,59.65
2019-05-20T04:55:29.765Z,59.51
2019-05-20T04:58:02.694Z,60.20
2019-05-20T05:00:56.213Z,60.10
2019-05-20T05:03:28.814Z,60.24
2019-05-20T05:06:01.336Z,61.71
2019-05-20T05:08:34.165Z,61.80
2019-05-20T05:11:06.860Z,61.63
2019-05-20T05:13:39.377Z,62.60
2019-05-20T05:16:12.106Z,62.66
2019-05-20T05:18:44.843Z,63.23
2019-05-20T05:21:18.634Z,63.56
2019-05-20T05:23:59.356Z,63.56
2019-05-20T05:26:25.817Z,63.69
2019-05-20T05:28:58.686Z,63.30
2019-05-20T05:31:31.393Z,62.45
2019-05-20T05:34:03.836Z,63.90
2019-05-20T05:36:36.699Z,63.66
2019-05-20T05:39:09.322Z,63.76
2019-05-20T05:41:42.162Z,63.94
2019-05-20T05:44:14.283Z,63.33
2019-05-20T05:46:47.023Z,63.75
2019-05-20T05:49:19.448Z,62.80
2019-05-20T05:51:52.092Z,63.20
2019-05-20T05:54:24.881Z,62.84
2019-05-20T05:56:57.322Z,62.81
2019-05-20T05:59:30.320Z,61.87
2019-05-20T06:02:02.834Z,62.07
2019-05-20T06:04:35.388Z,61.43
2019-05-20T06:07:08.356Z,61.41
2019-05-20T06:09:41.046Z,60.73
2019-05-20T06:12:13.311Z,60.36
2019-05-20T06:14:46.192Z,59.98
2019-05-20T06:17:18.960Z,59.18
2019-05-20T06:19:51.483Z,59.19
2019-05-20T06:22:24.454Z,58.61
2019-05-20T06:24:57.111Z,58.81
2019-05-20T06:27:30.241Z,59.12
2019-05-20T06:30:01.451Z,58.78
2019-05-20T06:32:34.611Z,56.67
2019-05-20T06:35:06.373Z,54.71
2019-05-20T06:37:42.092Z,54.20
2019-05-20T06:40:15.530Z,52.97
2019-05-20T06:42:48.147Z,52.73
2019-05-20T06:45:20.935Z,53.49
2019-05-20T06:47:53.430Z,51.96
2019-05-20T06:50:29.487Z,47.84
2019-05-20T06:53:00.800Z,47.06
2019-05-20T06:55:33.328Z,48.27
2019-05-20T06:58:06.009Z,47.66
2019-05-20T07:00:39.848Z,49.59
2019-05-20T07:03:12.230Z,46.41
2019-05-20T07:05:44.985Z,46.38
2019-05-20T07:08:17.809Z,45.11
2019-05-20T07:10:50.550Z,45.79
2019-05-20T07:13:23.156Z,45.04
2019-05-20T07:15:55.828Z,45.27
2019-05-20T07:18:28.696Z,43.39
2019-05-20T07:21:02.138Z,43.24
2019-05-20T07:23:35.677Z,43.26
2019-05-20T07:26:08.461Z,44.32
2019-05-20T07:28:40.723Z,42.94
2019-05-20T07:31:13.605Z,45.09
2019-05-20T07:33:46.098Z,44.07
2019-05-20T07:36:18.451Z,43.89
2019-05-20T07:38:51.280Z,44.14
2019-05-20T07:41:23.990Z,43.47
2019-05-20T07:43:56.420Z,41.86
2019-05-20T07:46:29.518Z,41.63
2019-05-20T07:49:02.755Z,42.31
2019-05-20T07:51:35.836Z,42.06
2019-05-20T07:54:09.140Z,40.23
2019-05-20T07:56:44.520Z,43.68
2019-05-20T07:59:18.823Z,40.07
2019-05-20T08:01:52.045Z,41.79
2019-05-20T08:04:24.978Z,41.30
2019-05-20T08:06:57.669Z,41.97
2019-05-20T08:09:30.739Z,40.89
2019-05-20T08:12:01.934Z,41.20
2019-05-20T08:14:35.006Z,40.84
2019-05-20T08:17:07.696Z,39.50
2019-05-20T08:19:40.639Z,40.04
2019-05-20T08:22:11.619Z,39.73
2019-05-20T08:24:43.887Z,38.69
2019-05-20T08:27:16.431Z,39.13
2019-05-20T08:29:49.391Z,40.41
2019-05-20T08:32:22.014Z,40.67
2019-05-20T08:34:55.067Z,41.34
2019-05-20T08:37:26.268Z,40.93
2019-05-20T08:39:59.810Z,40.58
2019-05-20T08:42:32.221Z,40.39
2019-05-20T08:45:05.500Z,40.69
2019-05-20T08:47:37.994Z,40.22
2019-05-20T08:50:15.954Z,42.07
2019-05-20T08:52:45.268Z,40.73
2019-05-20T08:55:18.234Z,41.72
2019-05-20T08:57:49.382Z,41.40
2019-05-20T09:00:24.558Z,41.20
2019-05-20T09:02:57.789Z,40.02
2019-05-20T09:05:30.511Z,42.37
2019-05-20T09:08:04.108Z,39.99
2019-05-20T09:10:39.457Z,41.39
2019-05-20T09:13:12.339Z,40.27
2019-05-20T09:15:45.561Z,39.98
2019-05-20T09:18:18.455Z,39.91
2019-05-20T09:20:50.967Z,39.48
2019-05-20T09:23:23.648Z,40.64
2019-05-20T09:25:56.511Z,41.41
2019-05-20T09:28:29.133Z,41.75
2019-05-20T09:31:02.387Z,39.92
2019-05-20T09:33:35.740Z,39.64
2019-05-20T09:36:08.605Z,39.93
2019-05-20T09:38:41.470Z,39.12
2019-05-20T09:41:12.811Z,41.08
2019-05-20T09:43:44.987Z,42.12
2019-05-20T09:46:18.008Z,44.84
2019-05-20T09:48:50.501Z,42.65
2019-05-20T09:51:23.020Z,41.74
2019-05-20T09:53:55.908Z,42.36
2019-05-20T09:56:27.837Z,41.07
2019-05-20T09:59:00.478Z,42.22
2019-05-20T10:01:33.471Z,42.56
2019-05-20T10:04:04.845Z,41.27
2019-05-20T10:06:37.587Z,41.38
2019-05-20T10:09:10.267Z,42.37
2019-05-20T10:11:43.287Z,41.48
2019-05-20T10:14:14.595Z,41.92
2019-05-20T10:16:48.313Z,42.17
2019-05-20T10:19:21.272Z,43.80
2019-05-20T10:22:04.634Z,46.97
2019-05-20T10:24:37.611Z,49.09
2019-05-20T10:27:08.921Z,49.20
2019-05-20T10:29:41.289Z,49.57
2019-05-20T10:32:14.204Z,49.93
2019-05-20T10:34:46.787Z,50.48
2019-05-20T10:37:19.448Z,52.10
2019-05-20T10:39:52.445Z,52.84
2019-05-20T10:42:24.975Z,53.33
2019-05-20T10:44:57.910Z,53.43
2019-05-20T10:47:30.728Z,54.44
2019-05-20T10:50:03.578Z,54.77
2019-05-20T10:52:36.540Z,59.59
2019-05-20T10:55:09.579Z,61.34
2019-05-20T10:57:42.429Z,60.03
2019-05-20T11:00:16.808Z,63.49
2019-05-20T11:02:49.208Z,64.95
2019-05-20T11:05:21.733Z,64.17
2019-05-20T11:07:54.712Z,63.10
2019-05-20T11:10:26.125Z,62.53
2019-05-20T11:12:59.083Z,60.22
2019-05-20T11:15:31.954Z,60.13
2019-05-20T11:18:04.474Z,55.23
2019-05-20T11:20:37.285Z,55.19
2019-05-20T11:23:09.850Z,52.50
2019-05-20T11:25:42.299Z,53.22
2019-05-20T11:28:15.114Z,48.52
2019-05-20T11:30:47.752Z,50.79
2019-05-20T11:33:20.272Z,49.79
2019-05-20T11:35:52.663Z,49.89
2019-05-20T11:38:25.501Z,50.56
2019-05-20T11:40:58.061Z,49.59
2019-05-20T11:43:30.562Z,48.69
2019-05-20T11:46:03.581Z,49.12
2019-05-20T11:48:34.612Z,51.18
2019-05-20T11:51:06.895Z,51.43
2019-05-20T11:53:39.254Z,49.82
2019-05-20T11:56:12.256Z,47.39
2019-05-20T11:58:45.326Z,47.77
2019-05-20T12:01:17.969Z,47.88
2019-05-20T12:03:50.484Z,44.13
2019-05-20T12:06:23.398Z,42.78
2019-05-20T12:08:55.958Z,44.19
2019-05-20T12:11:28.907Z,44.57
2019-05-20T12:14:00.281Z,44.76
2019-05-20T12:16:33.155Z,43.87
2019-05-20T12:19:05.639Z,44.81
2019-05-20T12:21:38.091Z,47.16
2019-05-20T12:24:11.083Z,47.48
2019-05-20T12:26:43.724Z,47.83
2019-05-20T12:29:16.161Z,47.44
2019-05-20T12:31:48.932Z,47.94
2019-05-20T12:34:21.641Z,49.30
2019-05-20T12:36:54.675Z,49.64
2019-05-20T12:39:27.450Z,49.59
2019-05-20T12:42:00.064Z,52.39
2019-05-20T12:44:32.518Z,53.79
2019-05-20T12:47:05.458Z,51.36
2019-05-20T12:49:38.054Z,57.44
2019-05-20T12:52:11.034Z,59.49
2019-05-20T12:54:42.219Z,58.41
2019-05-20T12:57:15.802Z,59.94
2019-05-20T12:59:48.401Z,62.62
2019-05-20T13:02:24.364Z,62.62
2019-05-20T13:04:56.761Z,64.18
2019-05-20T13:07:29.859Z,64.66
2019-05-20T13:10:03.139Z,67.20
2019-05-20T13:12:36.396Z,69.15
2019-05-20T13:15:11.778Z,68.96
2019-05-20T13:17:45.531Z,70.14
2019-05-20T13:20:18.549Z,70.91
2019-05-20T13:22:51.148Z,69.98
2019-05-20T13:25:24.422Z,70.06
2019-05-20T13:27:55.564Z,68.41
2019-05-20T13:30:29.211Z,71.12
2019-05-20T13:33:01.813Z,69.22
2019-05-20T13:35:34.653Z,68.23
2019-05-20T13:38:07.394Z,67.45
2019-05-20T13:40:46.288Z,63.07
2019-05-20T13:43:14.070Z,64.17
2019-05-20T13:45:48.224Z,65.52
2019-05-20T13:48:20.450Z,65.62
2019-05-20T13:50:56.363Z,64.45
2019-05-20T13:53:29.211Z,64.42
2019-05-20T13:56:02.243Z,64.52
2019-05-20T13:58:38.156Z,63.76
2019-05-20T14:01:10.559Z,64.33
2019-05-20T14:03:43.455Z,64.51
2019-05-20T14:06:16.121Z,65.54
2019-05-20T14:08:48.487Z,65.13
2019-05-20T14:11:33.778Z,66.50
2019-05-20T14:13:55.468Z,69.04
2019-05-20T14:16:27.849Z,69.71
2019-05-20T14:19:00.843Z,70.52
2019-05-20T14:21:33.330Z,70.20
2019-05-20T14:24:06.335Z,72.32
2019-05-20T14:26:38.854Z,74.07
2019-05-20T14:29:11.441Z,70.79
2019-05-20T14:31:44.267Z,74.44
2019-05-20T14:34:16.864Z,71.90
2019-05-20T14:36:52.625Z,76.10
2019-05-20T14:39:23.337Z,75.74
2019-05-20T14:41:55.242Z,75.12
2019-05-20T14:44:27.827Z,75.62
2019-05-20T14:47:00.714Z,74.74
2019-05-20T14:49:33.498Z,73.58
2019-05-20T14:52:06.010Z,74.70
2019-05-20T14:54:38.843Z,72.67
2019-05-20T14:57:11.468Z,70.70
2019-05-20T14:59:44.258Z,67.36
2019-05-20T15:02:16.968Z,62.19
2019-05-20T15:04:49.537Z,62.34
2019-05-20T15:07:30.197Z,64.31
2019-05-20T15:09:56.630Z,67.46
2019-05-20T15:12:29.351Z,67.64
2019-05-20T15:15:02.171Z,65.12
2019-05-20T15:17:34.134Z,67.98
2019-05-20T15:20:07.006Z,68.72
2019-05-20T15:22:39.834Z,65.11
2019-05-20T15:25:12.544Z,68.42
2019-05-20T15:27:45.476Z,70.85
2019-05-20T15:30:17.991Z,68.25
2019-05-20T15:32:50.606Z,69.40
2019-05-20T15:35:23.776Z,72.32
2019-05-20T15:37:56.650Z,73.22
2019-05-20T15:40:29.188Z,70.20
2019-05-20T15:43:02.255Z,72.64
2019-05-20T15:45:33.347Z,72.05
2019-05-20T15:48:05.674Z,73.04
2019-05-20T15:50:38.440Z,72.97
2019-05-20T15:53:12.460Z,71.06
2019-05-20T15:55:45.662Z,68.52
2019-05-20T15:58:18.330Z,72.21
2019-05-20T16:00:50.635Z,75.53
2019-05-20T16:03:23.542Z,74.62
2019-05-20T16:05:59.783Z,75.56
2019-05-20T16:08:31.217Z,74.09
2019-05-20T16:11:06.621Z,72.79
2019-05-20T16:13:38.459Z,69.22
2019-05-20T16:16:13.147Z,66.33
2019-05-20T16:18:46.083Z,71.44
2019-05-20T16:21:17.281Z,71.97
2019-05-20T16:23:49.792Z,67.84
2019-05-20T16:26:22.639Z,69.44
2019-05-20T16:28:54.806Z,71.88
2019-05-20T16:31:27.291Z,70.52
2019-05-20T16:33:59.994Z,65.47
2019-05-20T16:36:32.908Z,65.34
2019-05-20T16:39:06.240Z,67.84
2019-05-20T16:41:39.064Z,69.97
2019-05-20T16:44:12.110Z,70.23
2019-05-20T16:46:44.724Z,71.03
2019-05-20T16:49:18.653Z,72.38
2019-05-20T16:51:51.605Z,73.11
2019-05-20T16:54:24.355Z,71.93
2019-05-20T16:56:57.167Z,72.41
2019-05-20T16:59:29.903Z,72.24
2019-05-20T17:02:02.510Z,71.59
2019-05-20T17:04:35.600Z,71.71
2019-05-20T17:07:08.178Z,71.68
2019-05-20T17:09:40.656Z,71.41
2019-05-20T17:12:12.984Z,73.33
2019-05-20T17:14:45.833Z,74.21
2019-05-20T17:17:18.396Z,74.25
2019-05-20T17:19:51.308Z,75.54
2019-05-20T17:22:25.089Z,74.24
2019-05-20T17:24:57.895Z,73.27
2019-05-20T17:27:30.864Z,74.46
2019-05-20T17:30:04.544Z,75.35
2019-05-20T17:32:39.178Z,75.06
2019-05-20T17:35:12.846Z,75.08
2019-05-20T17:37:45.814Z,75.42
2019-05-20T17:40:18.902Z,76.27
2019-05-20T17:42:51.682Z,76.48
2019-05-20T17:45:24.394Z,77.00
2019-05-20T17:47:57.681Z,77.81
2019-05-20T17:50:28.850Z,76.84
2019-05-20T17:53:02.139Z,76.82
2019-05-20T17:55:34.951Z,76.51
2019-05-20T17:58:07.807Z,77.61
2019-05-20T18:00:40.434Z,77.78
2019-05-20T18:03:12.980Z,78.08
2019-05-20T18:05:45.836Z,77.07
2019-05-20T18:08:18.308Z,77.51
2019-05-20T18:10:53.723Z,78.00
2019-05-20T18:13:26.889Z,78.36
2019-05-20T18:15:59.360Z,78.35
2019-05-20T18:18:31.845Z,79.30
2019-05-20T18:21:04.781Z,79.69
2019-05-20T18:23:37.179Z,79.61
2019-05-20T18:26:09.755Z,79.75
2019-05-20T18:28:42.083Z,79.93
2019-05-20T18:31:29.660Z,79.52
2019-05-20T18:33:48.920Z,79.21
2019-05-20T18:36:21.454Z,79.23
2019-05-20T18:38:54.174Z,79.17
2019-05-20T18:41:26.934Z,79.13
2019-05-20T18:43:59.908Z,79.44
2019-05-20T18:46:32.455Z,79.73
2019-05-20T18:49:05.068Z,79.43
2019-05-20T18:51:37.715Z,79.55
2019-05-20T18:54:10.614Z,79.86
2019-05-20T18:56:43.417Z,80.01
2019-05-20T18:59:16.618Z,80.14
2019-05-20T19:02:03.864Z,79.86
2019-05-20T19:04:23.996Z,79.94
2019-05-20T19:06:55.969Z,79.50
2019-05-20T19:09:28.657Z,79.25
2019-05-20T19:12:01.936Z,78.92
2019-05-20T19:14:33.077Z,79.08
2019-05-20T19:17:06.049Z,78.62
2019-05-20T19:19:38.688Z,79.01
2019-05-20T19:22:11.737Z,79.13
2019-05-20T19:24:44.416Z,79.32
2019-05-20T19:27:17.199Z,79.55
2019-05-20T19:29:51.187Z,79.14
2019-05-20T19:32:24.991Z,78.73
2019-05-20T19:34:58.834Z,79.32
2019-05-20T19:37:31.784Z,78.31
2019-05-20T19:40:38.137Z,78.59
2019-05-20T19:43:10.728Z,78.87
2019-05-20T19:45:43.958Z,77.94
2019-05-20T19:48:16.889Z,77.94
2019-05-20T19:50:50.499Z,77.94
2019-05-20T19:53:23.905Z,78.31
2019-05-20T19:55:55.937Z,78.10
2019-05-20T19:58:28.376Z,77.70
2019-05-20T20:01:02.360Z,77.98
2019-05-20T20:03:35.205Z,78.43
2019-05-20T20:06:07.920Z,78.19
2019-05-20T20:08:40.425Z,78.66
2019-05-20T20:11:13.171Z,78.43
2019-05-20T20:13:45.988Z,78.21
2019-05-20T20:16:18.459Z,78.72
2019-05-20T20:18:51.340Z,79.17
2019-05-20T20:21:23.862Z,78.57
2019-05-20T20:23:56.532Z,79.08
2019-05-20T20:26:29.497Z,79.37
2019-05-20T20:29:02.053Z,79.61
2019-05-20T20:31:34.722Z,79.69
2019-05-20T20:34:07.384Z,80.18
2019-05-20T20:36:39.773Z,79.57
2019-05-20T20:39:12.968Z,79.47
2019-05-20T20:41:44.309Z,78.98
2019-05-20T20:44:17.120Z,78.95
2019-05-20T20:46:49.848Z,79.48
2019-05-20T20:49:22.828Z,78.92
2019-05-20T20:51:55.011Z,78.73
2019-05-20T20:54:27.504Z,78.64
2019-05-20T20:57:00.042Z,78.71
2019-05-20T20:59:32.817Z,78.56
2019-05-20T21:02:05.662Z,78.13
2019-05-20T21:04:38.650Z,78.48
2019-05-20T21:07:11.321Z,78.22
2019-05-20T21:09:44.393Z,79.19
2019-05-20T21:12:17.106Z,79.51
2019-05-20T21:14:50.033Z,79.91
2019-05-20T21:17:22.740Z,79.93
2019-05-20T21:19:55.072Z,79.79
2019-05-20T21:22:27.851Z,79.90
2019-05-20T21:25:00.450Z,79.00
2019-05-20T21:27:33.089Z,79.00
2019-05-20T21:30:06.162Z,78.21
2019-05-20T21:32:37.533Z,78.08
2019-05-20T21:35:10.217Z,77.48
2019-05-20T21:37:42.682Z,77.86
2019-05-20T21:40:15.208Z,77.53
2019-05-20T21:42:48.021Z,77.70
2019-05-20T21:45:20.708Z,78.00
2019-05-20T21:47:53.732Z,78.59
2019-05-20T21:50:26.286Z,78.40
2019-05-20T21:52:58.952Z,77.71
2019-05-20T21:55:31.730Z,77.78
2019-05-20T21:58:04.490Z,78.08
2019-05-20T22:00:56.368Z,78.09
2019-05-20T22:03:29.066Z,77.55
2019-05-20T22:06:02.016Z,78.41
2019-05-20T22:08:34.559Z,78.29
2019-05-20T22:11:07.108Z,78.57
2019-05-20T22:13:39.975Z,79.94
2019-05-20T22:16:12.555Z,80.39
2019-05-20T22:18:44.817Z,80.68
2019-05-20T22:21:19.345Z,80.59
2019-05-20T22:23:58.133Z,80.45
2019-05-20T22:26:30.482Z,79.64
2019-05-20T22:29:03.559Z,79.14
2019-05-20T22:31:36.015Z,79.42
2019-05-20T22:34:09.051Z,79.98
2019-05-20T22:36:41.683Z,80.69
2019-05-20T22:39:14.385Z,80.35
2019-05-20T22:41:47.224Z,79.74
2019-05-20T22:44:19.747Z,78.80
2019-05-20T22:46:52.822Z,79.11
2019-05-20T22:49:26.333Z,79.53
2019-05-20T22:51:59.095Z,79.66
2019-05-20T22:54:31.611Z,78.92
2019-05-20T22:57:04.609Z,78.22
2019-05-20T22:59:37.441Z,78.92
2019-05-20T23:02:10.458Z,78.92
2019-05-20T23:04:43.093Z,78.48
2019-05-20T23:07:15.044Z,78.34
2019-05-20T23:09:47.279Z,77.89
2019-05-20T23:12:19.773Z,77.84
2019-05-20T23:14:52.425Z,78.75
2019-05-20T23:17:26.115Z,78.66
2019-05-20T23:19:58.826Z,78.14
2019-05-20T23:22:32.484Z,77.65
2019-05-20T23:25:05.007Z,77.95
2019-05-20T23:27:38.299Z,78.24
2019-05-20T23:30:11.021Z,77.63
2019-05-20T23:32:43.782Z,78.43
2019-05-20T23:35:16.366Z,78.55
2019-05-20T23:37:49.067Z,78.44
2019-05-20T23:40:21.373Z,78.64
2019-05-20T23:42:54.378Z,78.80
2019-05-20T23:45:27.059Z,78.75
2019-05-20T23:47:59.980Z,78.68
2019-05-20T23:50:32.593Z,78.53
2019-05-20T23:53:05.630Z,78.12
2019-05-20T23:55:38.145Z,78.14
2019-05-20T23:58:10.943Z,77.68
